• Join FlightAware (Why Join?)
  • Login
  • US Flag 
12:06AM EDT


 

Airport Tracker/Info


-or-


 

Live Flight TrackerFlight Track Log ✈ AAL297 ✈ 01-May-2013 ✈ KDFW - KLAX

Flight Track Log - Related Links

Times and Time Zones

All times are in EDT time to prevent confusion due to time zone crossing. See the AAL297 flight status page for this flight to view local times or setup timezone preferences in your user account.

Time Position Orientation Groundspeed Altitude Reporting Facility
EDT Latitude Longitude Course Direction KTS MPH feet Rate Location/Type
03:02PM 32.8650 -97.0510 179° South 191 220 2,300  Level FlightAware
03:02PM 32.8490 -97.0510 180° South 218 251 2,600 1,980 Climbing FlightAware
03:02PM 32.8160 -97.0520 181° South 244 281 3,800 2,520 Climbing FlightAware
03:03PM 32.8000 -97.0580 197° South 255 293 4,500 2,400 Climbing FlightAware
03:03PM 32.7910 -97.0640 209° Southwest 263 303 4,800 2,400 Climbing FlightAware
03:03PM 32.7780 -97.0820 229° Southwest 275 316 5,500 2,580 Climbing FlightAware
03:03PM 32.7740 -97.1040 258° West 282 325 6,100 2,520 Climbing FlightAware
03:04PM 32.7690 -97.1500 263° West 285 328 7,400 2,700 Climbing FlightAware
03:04PM 32.7670 -97.1920 267° West 286 329 8,600 2,580 Climbing FlightAware
03:05PM 32.7640 -97.2380 266° West 290 334 9,800 1,260 Climbing FlightAware
03:05PM 32.7600 -97.3050 266° West 328 377 10,100 1,260 Climbing FlightAware
03:06PM 32.7560 -97.3740 266° West 331 381 11,500 2,220 Climbing FlightAware
03:07PM 32.7510 -97.4580 266° West 333 383 13,300 2,400 Climbing FlightAware
03:07PM 32.7460 -97.5330 265° West 338 389 14,900 2,220 Climbing FlightAware
03:08PM 32.7410 -97.6180 266° West 345 397 16,500 1,860 Climbing FlightAware
03:09PM 32.7360 -97.6900 265° West 357 411 17,600 1,620 Climbing FlightAware
03:10PM 32.7330 -97.7780 268° West 372 428 18,800 1,680 Climbing FlightAware
03:10PM 32.7330 -97.8470 270° West 376 433 19,900 1,920 Climbing FlightAware
03:11PM 32.7330 -97.9340 270° West 378 435 21,200 1,320 Climbing FlightAware
03:12PM 32.7270 -98.0460 266° West 406 467 21,900 840 Climbing FlightAware
03:12PM 32.7160 -98.1340 262° West 423 487 22,500 720 Climbing FlightAware
03:13PM 32.7040 -98.2320 262° West 426 490 23,000 1,200 Climbing FlightAware
03:14PM 32.6890 -98.3490 261° West 434 499 24,400 1,740 Climbing FlightAware
03:15PM 32.6960 -98.2930 82° East 450 518 25,800 1,740 Climbing FlightAware
03:15PM 32.6620 -98.5620 262° West 458 527 26,900 1,500 Climbing FlightAware
03:16PM 32.6470 -98.6780 261° West 467 537 28,000 1,320 Climbing FlightAware
03:16PM 32.6390 -98.7390 261° West 471 542 28,500 1,320 Climbing FlightAware
03:17PM 32.6240 -98.8550 261° West 475 547 29,600 1,680 Climbing FlightAware
03:18PM 32.6100 -98.9600 261° West 468 539 30,900 1,860 Climbing FlightAware
03:19PM 32.5960 -99.0710 262° West 461 531 32,300 1,800 Climbing FlightAware
03:19PM 32.5830 -99.1700 261° West 455 524 33,500 1,500 Climbing FlightAware
03:20PM 32.5670 -99.2830 260° West 456 525 34,500 1,320 Climbing FlightAware
03:21PM 32.5540 -99.3820 261° West 456 525 35,400 1,080 Climbing FlightAware
03:21PM 32.5410 -99.4790 261° West 457 526 36,000 420 Climbing FlightAware
03:22PM 32.5260 -99.5900 261° West 460 529 36,000  Level FlightAware
03:23PM 32.5120 -99.6870 260° West 459 528 36,000  Level FlightAware
03:23PM 32.4990 -99.7880 261° West 460 529 36,000  Level FlightAware
03:24PM 32.4860 -99.9030 262° West 459 528 36,000  Level FlightAware
03:25PM 32.4810 -100.0040 267° West 458 527 36,000  Level FlightAware
03:26PM 32.4750 -100.1140 266° West 458 527 36,000  Level FlightAware
03:26PM 32.4700 -100.2150 267° West 458 527 36,000  Level FlightAware
03:27PM 32.4640 -100.3150 266° West 459 528 36,000  Level FlightAware
03:28PM 32.4580 -100.4200 266° West 459 528 36,000  Level FlightAware
03:28PM 32.4520 -100.5260 266° West 458 527 36,000  Level FlightAware
03:29PM 32.4460 -100.6270 266° West 458 527 36,000  Level FlightAware
03:30PM 32.4410 -100.7120 266° West 458 527 36,000  Level FlightAware
03:30PM 32.4360 -100.7970 266° West 458 527 36,000  Level FlightAware
03:31PM 32.4310 -100.8820 266° West 458 527 36,000  Level FlightAware
03:32PM 32.4180 -101.0900 266° West 456 525 36,000  Level FlightAware
03:33PM 32.4110 -101.2010 266° West 455 524 36,000  Level FlightAware
03:33PM 32.4070 -101.2730 266° West 454 522 36,000  Level FlightAware
03:34PM 32.4000 -101.3880 266° West 454 522 36,000  Level FlightAware
03:35PM 32.3930 -101.4850 265° West 453 521 36,000  Level FlightAware
03:36PM 32.3850 -101.5940 265° West 453 521 36,000  Level FlightAware
03:36PM 32.3800 -101.6710 266° West 453 521 36,000  Level FlightAware
03:37PM 32.3740 -101.7550 265° West 453 521 36,000  Level FlightAware
03:38PM 32.3660 -101.8600 265° West 453 521 36,000  Level FlightAware
03:38PM 32.3600 -101.9440 265° West 453 521 36,000  Level FlightAware
03:39PM 32.3530 -102.0280 264° West 453 521 36,000  Level FlightAware
03:40PM 32.3470 -102.1120 265° West 453 521 36,000  Level FlightAware
03:40PM 32.3410 -102.1960 265° West 453 521 36,000  Level FlightAware
03:41PM 32.3330 -102.3010 265° West 453 521 36,000  Level FlightAware
03:42PM 32.3270 -102.3850 265° West 453 521 36,000  Level FlightAware
03:42PM 32.3210 -102.4690 265° West 453 521 36,000  Level FlightAware
03:43PM 32.3150 -102.5530 265° West 453 521 36,000  Level FlightAware
03:44PM 32.3070 -102.6580 265° West 453 521 36,000  Level FlightAware
03:44PM 32.3020 -102.7210 265° West 453 521 36,000  Level FlightAware
03:45PM 32.2940 -102.8260 265° West 453 521 36,000  Level FlightAware
03:46PM 32.2625 -103.0528 265° West 448 516 36,000  Level Albuquerque Center
03:47PM 32.2500 -103.1994 264° West 448 516 36,000  Level Albuquerque Center
03:48PM 32.2344 -103.3744 264° West 447 514 36,000  Level Albuquerque Center
03:49PM 32.2222 -103.5194 264° West 445 512 36,000  Level Albuquerque Center
03:50PM 32.2089 -103.6636 264° West 444 511 36,000  Level Albuquerque Center
03:51PM 32.1986 -103.8094 265° West 446 513 36,000  Level Albuquerque Center
03:52PM 32.1853 -103.9544 264° West 447 514 36,000  Level Albuquerque Center
03:53PM 32.1703 -104.1228 264° West 445 512 36,000  Level Albuquerque Center
03:54PM 32.1561 -104.2683 263° West 447 514 36,000  Level Albuquerque Center
03:55PM 32.1425 -104.4122 264° West 446 513 36,000  Level Albuquerque Center
03:56PM 32.1289 -104.5564 264° West 445 512 36,000  Level Albuquerque Center
03:57PM 32.1236 -104.6994 268° West 439 505 36,000  Level Albuquerque Center
03:58PM 32.1308 -104.8411 273° West 434 499 36,000  Level Albuquerque Center
03:59PM 32.1403 -105.0133 274° West 440 506 36,000  Level Albuquerque Center
04:00PM 32.1467 -105.1567 273° West 440 506 36,000  Level Albuquerque Center
04:06PM 32.1930 -106.0290 273° West 436 502 36,000  Level FlightAware
04:07PM 32.1970 -106.1220 273° West 436 502 36,000  Level FlightAware
04:07PM 32.2000 -106.2140 272° West 435 501 36,000  Level FlightAware
04:08PM 32.2040 -106.3150 273° West 434 499 36,000  Level FlightAware
04:09PM 32.2090 -106.4480 273° West 433 498 36,000  Level FlightAware
04:10PM 32.2120 -106.5410 272° West 432 497 36,000  Level FlightAware
04:11PM 32.2160 -106.6500 273° West 431 496 36,000  Level FlightAware
04:11PM 32.2190 -106.7450 272° West 432 497 36,000  Level FlightAware
04:12PM 32.2220 -106.8380 272° West 432 497 36,000  Level FlightAware
04:13PM 32.2250 -106.9260 272° West 431 496 36,000 360 Level FlightAware
04:14PM 32.2410 -107.0660 278° West 427 491 36,600 540 Climbing FlightAware
04:14PM 32.2650 -107.1710 285° West 426 490 37,000 240 Climbing FlightAware
04:15PM 32.2870 -107.2670 285° West 426 490 37,000  Level FlightAware
04:16PM 32.3040 -107.3430 285° West 426 490 37,000  Level FlightAware
04:17PM 32.3220 -107.4200 285° West 426 490 37,000  Level FlightAware
04:17PM 32.3390 -107.4970 285° West 426 490 37,000 960 Level FlightAware
04:18PM 32.3531 -107.5867 285° West 415 478 38,000 120 Climbing Albuquerque Center
04:23PM 32.5260 -108.2910 285° West 38,000  Level FlightAware
04:24PM 32.5540 -108.4160 285° West 420 483 38,000  Level FlightAware
04:24PM 32.5780 -108.5040 288° West 421 484 38,000  Level FlightAware
04:25PM 32.6030 -108.5920 289° West 422 486 38,000  Level FlightAware
04:26PM 32.6300 -108.6900 288° West 424 488 38,000  Level FlightAware
04:26PM 32.6540 -108.7800 288° West 424 488 38,000  Level FlightAware
04:27PM 32.6800 -108.8770 288° West 424 488 38,000  Level FlightAware
04:28PM 32.7050 -108.9670 288° West 424 488 38,000  Level FlightAware
04:28PM 32.7280 -109.0560 287° West 421 484 38,000  Level FlightAware
04:29PM 32.7550 -109.1540 288° West 421 484 38,000  Level FlightAware
04:30PM 32.7780 -109.2360 288° West 421 484 38,000  Level FlightAware
04:31PM 32.8050 -109.3380 288° West 420 483 38,000  Level FlightAware
04:31PM 32.8290 -109.4260 288° West 419 482 38,000  Level FlightAware
04:32PM 32.8530 -109.5170 287° West 419 482 38,000  Level FlightAware
04:33PM 32.8790 -109.6120 288° West 419 482 38,000  Level FlightAware
04:33PM 32.9030 -109.7000 288° West 418 481 38,000  Level FlightAware
04:34PM 32.9300 -109.8020 288° West 416 479 38,000  Level FlightAware
04:35PM 32.9530 -109.8890 288° West 416 479 38,000  Level FlightAware
04:35PM 32.9760 -109.9770 287° West 415 478 38,000  Level FlightAware
04:36PM 33.0020 -110.0720 288° West 414 476 38,000  Level FlightAware
04:37PM 33.0250 -110.1590 288° West 413 475 38,000  Level FlightAware
04:38PM 33.0510 -110.2600 287° West 412 474 38,000  Level FlightAware
04:38PM 33.0740 -110.3470 288° West 412 474 38,000  Level FlightAware
04:39PM 33.0960 -110.4310 287° West 412 474 38,000  Level FlightAware
04:40PM 33.1210 -110.5280 287° West 413 475 38,000  Level FlightAware
04:40PM 33.1440 -110.6150 288° West 413 475 38,000  Level FlightAware
04:41PM 33.1700 -110.7150 287° West 413 475 38,000  Level FlightAware
04:42PM 33.1920 -110.8010 287° West 413 475 38,000  Level FlightAware
04:42PM 33.2140 -110.8890 287° West 413 475 38,000  Level FlightAware
04:43PM 33.2390 -110.9850 287° West 412 474 38,000  Level FlightAware
04:44PM 33.2610 -111.0720 287° West 414 476 38,000  Level FlightAware
04:45PM 33.2870 -111.1720 287° West 416 479 38,000  Level FlightAware
04:45PM 33.3080 -111.2570 286° West 417 480 38,000  Level FlightAware
04:46PM 33.3310 -111.3470 287° West 418 481 38,000  Level FlightAware
04:47PM 33.3560 -111.4460 287° West 420 483 38,000  Level FlightAware
04:47PM 33.3780 -111.5340 287° West 421 484 38,000  Level FlightAware
04:48PM 33.4010 -111.6260 287° West 422 486 38,000  Level FlightAware
04:49PM 33.4260 -111.7260 287° West 422 486 38,000  Level FlightAware
04:49PM 33.4480 -111.8140 287° West 424 488 38,000  Level FlightAware
04:50PM 33.4740 -111.9180 287° West 425 489 38,000  Level FlightAware
04:51PM 33.4960 -112.0090 286° West 426 490 38,000  Level FlightAware
04:52PM 33.5170 -112.0910 287° West 426 490 38,000  Level FlightAware
04:52PM 33.5420 -112.1950 286° West 427 491 38,000  Level FlightAware
04:53PM 33.5640 -112.2870 286° West 426 490 38,000  Level FlightAware
04:54PM 33.5880 -112.3850 286° West 427 491 38,000  Level FlightAware
04:54PM 33.6120 -112.4830 286° West 427 491 38,000  Level FlightAware
04:55PM 33.6360 -112.5840 286° West 426 490 38,000  Level FlightAware
04:56PM 33.6570 -112.6700 286° West 427 491 38,000  Level FlightAware
04:56PM 33.6770 -112.7510 287° West 427 491 38,000  Level FlightAware
04:57PM 33.7040 -112.8650 286° West 428 493 38,000  Level FlightAware
04:58PM 33.7260 -112.9580 286° West 429 494 38,000  Level FlightAware
04:59PM 33.7490 -113.0550 286° West 429 494 38,000  Level FlightAware
04:59PM 33.7720 -113.1540 286° West 429 494 38,000  Level FlightAware
05:00PM 33.7920 -113.2400 286° West 429 494 38,000  Level FlightAware
05:01PM 33.8170 -113.3480 286° West 430 495 38,000  Level FlightAware
05:01PM 33.8320 -113.4110 286° West 430 495 38,000  Level FlightAware
05:02PM 33.8540 -113.5030 286° West 429 494 38,000  Level FlightAware
05:03PM 33.8790 -113.6100 286° West 429 494 38,000  Level FlightAware
05:03PM 33.9000 -113.7020 285° West 429 494 38,000  Level FlightAware
05:04PM 33.9180 -113.7810 285° West 429 494 38,000  Level FlightAware
05:05PM 33.9500 -113.9210 285° West 426 490 38,000  Level FlightAware
05:06PM 33.9710 -114.0150 285° West 424 488 38,000  Level FlightAware
05:07PM 34.0020 -114.1530 285° West 423 487 38,000  Level FlightAware
05:07PM 34.0190 -114.2260 286° West 423 487 38,000  Level FlightAware
05:08PM 34.0340 -114.2930 285° West 425 489 38,000  Level FlightAware
05:09PM 34.0510 -114.3900 282° West 425 489 38,000  Level FlightAware
05:09PM 34.0480 -114.5070 268° West 430 495 38,000  Level FlightAware
05:10PM 34.0540 -114.5900 275° West 430 495 38,000  Level FlightAware
05:11PM 34.0600 -114.6720 275° West 430 495 38,000  Level FlightAware
05:11PM 34.0670 -114.7730 275° West 430 495 38,000  Level FlightAware
05:12PM 34.0730 -114.8550 275° West 430 495 38,000  Level FlightAware
05:13PM 34.0790 -114.9360 275° West 430 495 38,000  Level FlightAware
05:13PM 34.0850 -115.0170 275° West 430 495 38,000  Level FlightAware
05:14PM 34.0910 -115.0990 275° West 430 495 38,000  Level FlightAware
05:15PM 34.1050 -115.3390 274° West 434 499 38,000  Level FlightAware
05:16PM 34.1110 -115.4320 274° West 435 501 38,000  Level FlightAware
05:16PM 34.1170 -115.5410 274° West 436 502 38,000 -180 Level FlightAware
05:17PM 34.1240 -115.6530 274° West 428 493 37,800 -780 Descending FlightAware
05:18PM 34.1270 -115.7470 272° West 431 496 36,900 -1,380 Descending FlightAware
05:18PM 34.1180 -115.8410 263° West 437 503 36,000 -1,380 Descending FlightAware
05:19PM 34.1020 -115.9500 260° West 436 502 35,000 -1,740 Descending FlightAware
05:20PM 34.0880 -116.0430 260° West 438 504 33,600 -2,520 Descending FlightAware
05:20PM 34.0730 -116.1410 260° West 441 507 31,700 -2,640 Descending FlightAware
05:21PM 34.0560 -116.2540 260° West 436 502 29,900 -2,220 Descending FlightAware
05:22PM 34.0410 -116.3570 260° West 427 491 28,400 -2,100 Descending FlightAware
05:23PM 34.0270 -116.4510 260° West 420 483 27,000 -2,160 Descending FlightAware
05:23PM 34.0160 -116.5580 263° West 411 473 25,400 -2,160 Descending FlightAware
05:24PM 34.0090 -116.6480 265° West 406 467 24,000 -2,100 Descending FlightAware
05:25PM 34.0030 -116.7230 265° West 400 460 22,800 -2,100 Descending FlightAware
05:25PM 33.9960 -116.8110 265° West 393 452 21,400 -2,160 Descending FlightAware
05:26PM 33.9880 -116.9100 264° West 386 444 19,800 -2,160 Descending FlightAware
05:27PM 33.9800 -116.9950 264° West 381 438 18,400 -2,040 Descending FlightAware
05:27PM 33.9730 -117.0800 264° West 373 429 17,100 -1,440 Descending FlightAware
05:28PM 33.9650 -117.1690 264° West 356 410 16,400 -780 Descending FlightAware
05:29PM 33.9590 -117.2470 265° West 356 410 16,000 -1,020 Descending FlightAware
05:30PM 33.9510 -117.3390 264° West 359 413 15,000 -1,320 Descending FlightAware
05:30PM 33.9520 -117.3650 273° West 354 407 14,700 -1,440 Descending FlightAware
05:30PM 33.9750 -117.4400 290° West 349 402 13,700 -1,500 Descending FlightAware
05:31PM 34.0010 -117.5100 294° West 349 402 12,700 -1,740 Descending FlightAware
05:32PM 34.0270 -117.5930 291° West 341 392 11,300 -1,680 Descending FlightAware
05:32PM 34.0250 -117.6560 268° West 311 358 10,500 -1,200 Descending FlightAware
05:33PM 34.0190 -117.7140 263° West 286 329 9,900 -1,140 Descending FlightAware
05:33PM 34.0150 -117.7520 263° West 285 328 9,400 -1,560 Descending FlightAware
05:34PM 34.0100 -117.8000 263° West 291 335 8,500 -1,740 Descending FlightAware
05:34PM 34.0080 -117.8270 265° West 290 334 8,100 -1,500 Descending FlightAware
05:35PM 34.0040 -117.8640 263° West 290 334 7,500 -1,440 Descending FlightAware
05:35PM 33.9990 -117.9120 263° West 292 336 6,800 -1,560 Descending FlightAware
05:36PM 33.9950 -117.9540 263° West 292 336 6,100 -1,560 Descending FlightAware
05:36PM 33.9900 -118.0030 263° West 293 337 5,400 -1,140 Descending FlightAware
05:37PM 33.9850 -118.0500 263° West 279 321 5,000 -900 Descending FlightAware
05:37PM 33.9810 -118.0860 262° West 264 304 4,600 -1,080 Descending FlightAware
05:37PM 33.9800 -118.1010 265° West 259 298 4,400 -1,380 Descending FlightAware
05:38PM 33.9750 -118.1500 263° West 222 255 3,600 -1,200 Descending FlightAware
05:38PM 33.9720 -118.1780 263° West 212 244 3,200 -1,080 Descending FlightAware
05:38PM 33.9700 -118.1950 262° West 204 235 2,900 -1,080 Descending FlightAware
05:39PM 33.9670 -118.2290 264° West 190 219 2,400 -780 Descending FlightAware
05:40PM 33.9640 -118.2520 261° West 179 206 2,000 -720 Descending FlightAware
05:40PM 33.9600 -118.2900 263° West 145 167 1,400 -780 Descending FlightAware
05:41PM 33.9590 -118.3050 265° West 136 157 1,100 -360 Descending FlightAware
05:41PM 33.9570 -118.3230 262° West 136 157 1,100 -780 Level FlightAware
05:42PM 33.9540 -118.3520 263° West 130 150 400 -900 Descending FlightAware
05:42PM 33.9520 -118.3660 260° West 129 148 200 -240 Descending FlightAware
05:43PM 33.9500 -118.3830 262° West 129 148 200  Level FlightAware